Temp: 14.0°C   Baro: 1018.4mb
  Wind: 2.9mph   Dir: E (79°)
  Rain: 0.0mm (0.0mm/hr)
  Solar: 0W/m2  Hum: 84%
 
Bath Spa Weather Station Historical Data
Daily Summary for July 12, 2019 Units:  English    Metric   Both
Daily Weekly Monthly Yearly Custom
  High: Low: Average:
Temperature: 71.3 °F 55.9 °F 62.8 °F
Dew Point: 61.3 °F 53.6 °F 57.8 °F
Humidity: 94% 67.8% 84%
Wind Speed: 12.4mph 0mph 4.3mph
Wind Gust: 20mph - -
Wind- - West
Pressure: 30.39 in 30.24 in -
Precipitation: 0.01 in    
Historical Graphs
 
 
Tabular Data for July 12, 2019
Time Temperature Dew Point Pressure Wind Wind Speed Wind Gust Humidity Rainfall Rate (Hourly) solar
00:04 57.9 °F 55.2 °F 30.24 in WNW 0.5 mph 3 mph 91% 0.00 in 0 W/m2
00:09 57.9 °F 55.2 °F 30.24 in WNW 0.1 mph 1 mph 91% 0.00 in 0 W/m2
00:14 58 °F 55.3 °F 30.24 in WNW 0.8 mph 4 mph 91% 0.00 in 0 W/m2
00:19 58.1 °F 55.4 °F 30.24 in WNW 0.3 mph 4 mph 91% 0.00 in 0 W/m2
00:24 58.1 °F 55.4 °F 30.24 in WNW 1.1 mph 3 mph 91% 0.00 in 0 W/m2
00:29 58.1 °F 55.4 °F 30.24 in WNW 0.4 mph 2 mph 91% 0.00 in 0 W/m2
00:34 58.1 °F 55.4 °F 30.24 in WNW 0.8 mph 3 mph 91% 0.00 in 0 W/m2
00:39 58.2 °F 55.5 °F 30.24 in WNW 0.8 mph 3 mph 91% 0.00 in 0 W/m2
00:44 58.3 °F 55.6 °F 30.24 in WNW 1.3 mph 4 mph 91% 0.00 in 0 W/m2
00:49 58.3 °F 55.6 °F 30.24 in WNW 1 mph 3 mph 91% 0.00 in 0 W/m2
00:54 58.3 °F 55.6 °F 30.24 in WNW 1.2 mph 3 mph 91% 0.00 in 0 W/m2
00:59 58.3 °F 55.6 °F 30.24 in WNW 1 mph 3 mph 91% 0.00 in 0 W/m2
01:04 58.2 °F 55.5 °F 30.24 in WNW 1 mph 3 mph 91% 0.00 in 0 W/m2
01:09 58.2 °F 55.5 °F 30.24 in WNW 0.8 mph 3 mph 91% 0.00 in 0 W/m2
01:14 58.3 °F 55.6 °F 30.24 in WNW 0.9 mph 3 mph 91% 0.00 in 0 W/m2
01:19 58.2 °F 55.5 °F 30.24 in WNW 0.8 mph 3 mph 91% 0.00 in 0 W/m2
01:24 58.1 °F 55.4 °F 30.25 in WNW 1.5 mph 3 mph 91% 0.00 in 0 W/m2
01:29 58.1 °F 55.4 °F 30.25 in WNW 2.3 mph 5 mph 91% 0.00 in 0 W/m2
01:34 58 °F 55.3 °F 30.25 in WNW 1.4 mph 5 mph 91% 0.00 in 0 W/m2
01:39 57.8 °F 55.2 °F 30.25 in WNW 0.9 mph 5 mph 91% 0.00 in 0 W/m2
01:44 57.7 °F 55.2 °F 30.25 in WNW 0.4 mph 5 mph 91% 0.00 in 0 W/m2
01:49 57.6 °F 55 °F 30.25 in WNW 0.3 mph 3 mph 91% 0.00 in 0 W/m2
01:54 57.4 °F 54.8 °F 30.25 in WNW 0.4 mph 2 mph 91% 0.00 in 0 W/m2
01:59 57.2 °F 54.7 °F 30.25 in WNW 0.6 mph 2 mph 91% 0.00 in 0 W/m2
02:04 57.1 °F 54.6 °F 30.26 in WNW 0.5 mph 2 mph 91% 0.00 in 0 W/m2
02:09 56.8 °F 54.3 °F 30.25 in WNW 0.6 mph 2 mph 91% 0.00 in 0 W/m2
02:14 56.7 °F 54.1 °F 30.25 in WNW 0.4 mph 2 mph 91% 0.00 in 0 W/m2
02:19 56.6 °F 54.1 °F 30.25 in WNW 1.2 mph 3 mph 91.6% 0.00 in 0 W/m2
02:24 56.3 °F 54 °F 30.25 in WNW 1.1 mph 3 mph 92% 0.00 in 0 W/m2
02:29 56.3 °F 54 °F 30.26 in WNW 0.4 mph 3 mph 92% 0.00 in 0 W/m2
02:34 56.2 °F 53.9 °F 30.26 in WNW 0.4 mph 2 mph 92% 0.00 in 0 W/m2
02:39 56.2 °F 53.9 °F 30.26 in WNW 0.3 mph 2 mph 92% 0.00 in 0 W/m2
02:44 56.1 °F 53.8 °F 30.26 in WNW 1 mph 3 mph 92% 0.00 in 0 W/m2
02:49 56.1 °F 53.8 °F 30.26 in WNW 0.5 mph 3 mph 92% 0.00 in 0 W/m2
02:54 56.2 °F 53.9 °F 30.26 in WNW 0.4 mph 3 mph 92% 0.00 in 0 W/m2
02:59 56.2 °F 53.9 °F 30.26 in WNW 0.2 mph 2 mph 92% 0.00 in 0 W/m2
03:04 56.2 °F 53.9 °F 30.26 in WNW 0.3 mph 2 mph 92% 0.00 in 0 W/m2
03:09 56.3 °F 54 °F 30.26 in WNW 0.2 mph 2 mph 92% 0.00 in 0 W/m2
03:14 56.2 °F 53.9 °F 30.26 in WNW 0.2 mph 1 mph 92% 0.00 in 0 W/m2
03:19 56.1 °F 53.8 °F 30.26 in WNW 0.3 mph 2 mph 92% 0.00 in 0 W/m2
03:24 56.1 °F 53.8 °F 30.26 in Calm   2 mph 92% 0.00 in 0 W/m2
03:29 56.1 °F 53.8 °F 30.26 in Calm   1 mph 92% 0.00 in 0 W/m2
03:34 56 °F 53.7 °F 30.27 in WNW 0.1 mph 1 mph 92% 0.00 in 0 W/m2
03:39 55.9 °F 53.6 °F 30.27 in WNW 0.6 mph 2 mph 92% 0.00 in 0 W/m2
03:44 55.9 °F 53.7 °F 30.27 in WNW 0.3 mph 2 mph 92.2% 0.00 in 0 W/m2
03:49 55.9 °F 53.8 °F 30.27 in WNW 0.4 mph 3 mph 92.5% 0.00 in 0 W/m2
03:54 55.9 °F 54 °F 30.27 in WNW 1.3 mph 4 mph 93% 0.00 in 0 W/m2
03:59 55.9 °F 54 °F 30.27 in WNW 0.5 mph 2 mph 93% 0.00 in 0 W/m2
04:04 55.9 °F 54 °F 30.27 in WNW 0.2 mph 1 mph 93% 0.00 in 0 W/m2
04:09 56.1 °F 54.1 °F 30.27 in WNW 0.5 mph 2 mph 93% 0.00 in 0 W/m2
04:14 56.1 °F 54.1 °F 30.27 in Calm     93% 0.00 in 0 W/m2
04:19 56.1 °F 53.9 °F 30.27 in Calm     92.3% 0.00 in 0 W/m2
04:24 56.1 °F 53.8 °F 30.27 in Calm   1 mph 92% 0.00 in 0 W/m2
04:29 56.3 °F 54 °F 30.27 in Calm   1 mph 92% 0.00 in 0 W/m2
04:34 56.3 °F 54 °F 30.27 in Calm   1 mph 92% 0.00 in 0 W/m2
04:39 56.3 °F 54 °F 30.27 in WNW 0.4 mph 2 mph 92% 0.00 in 0 W/m2
04:44 56.5 °F 54.1 °F 30.27 in WNW 0.4 mph 2 mph 92% 0.00 in 0 W/m2
04:49 56.7 °F 54.3 °F 30.27 in WNW 0.2 mph 2 mph 92% 0.00 in 0 W/m2
04:54 56.7 °F 54.3 °F 30.27 in Calm   1 mph 92% 0.00 in 0 W/m2
04:59 56.8 °F 54.4 °F 30.27 in WNW 0.5 mph 3 mph 92% 0.00 in 0 W/m2
05:04 56.8 °F 54.5 °F 30.27 in WNW 0.8 mph 4 mph 92% 0.00 in 0 W/m2
05:09 56.9 °F 54.6 °F 30.27 in WNW 0.6 mph 3 mph 92% 0.00 in 0 W/m2
05:14 57 °F 54.7 °F 30.27 in WNW 0.4 mph 3 mph 92% 0.00 in 0 W/m2
05:19 57.1 °F 54.8 °F 30.27 in WNW 0.4 mph 2 mph 92% 0.00 in 0 W/m2
05:24 57.2 °F 54.9 °F 30.27 in WNW 0.5 mph 3 mph 92% 0.00 in 0 W/m2
05:29 57.5 °F 55.1 °F 30.27 in WNW 2.4 mph 5 mph 92% 0.00 in 0 W/m2
05:34 57.7 °F 55.3 °F 30.27 in WNW 1.9 mph 5 mph 92% 0.00 in 0 W/m2
05:39 57.7 °F 55.4 °F 30.27 in WNW 1 mph 4 mph 92% 0.00 in 0 W/m2
05:44 57.9 °F 55.6 °F 30.27 in West 1.4 mph 6 mph 92% 0.00 in 0 W/m2
05:49 57.9 °F 55.6 °F 30.27 in West 0.6 mph 2 mph 92% 0.00 in 0 W/m2
05:54 58 °F 55.3 °F 30.28 in West 0.9 mph 4 mph 91.1% 0.00 in 0 W/m2
05:59 57.9 °F 55.2 °F 30.28 in West 1.8 mph 5 mph 91% 0.00 in 0 W/m2
06:04 57.9 °F 55.2 °F 30.28 in West 1.7 mph 5 mph 91% 0.00 in 0 W/m2
06:09 58 °F 55.3 °F 30.28 in West 2.4 mph 6 mph 91% 0.00 in 0 W/m2
06:14 58.1 °F 55.4 °F 30.28 in West 3.1 mph 7 mph 91% 0.00 in 0 W/m2
06:19 58.1 °F 55.4 °F 30.28 in WSW 1.9 mph 7 mph 90.9% 0.00 in 0 W/m2
06:24 58.1 °F 55.2 °F 30.28 in West 2.1 mph 6 mph 90% 0.00 in 0 W/m2
06:29 58.2 °F 55.4 °F 30.29 in WSW 2.1 mph 6 mph 90.2% 0.00 in 0 W/m2
06:34 58.3 °F 55.4 °F 30.29 in WSW 1.4 mph 4 mph 90% 0.00 in 0 W/m2
06:39 58.3 °F 55.4 °F 30.29 in WSW 2.3 mph 5 mph 90% 0.00 in 0 W/m2
06:44 58.3 °F 55.4 °F 30.29 in West 1.8 mph 5 mph 90% 0.00 in 0 W/m2
06:49 58.3 °F 55.5 °F 30.29 in West 1.5 mph 5 mph 90.1% 0.00 in 5 W/m2
06:54 58.3 °F 55.6 °F 30.29 in West 0.8 mph 5 mph 91% 0.00 in 7 W/m2
06:59 58.3 °F 55.6 °F 30.29 in WNW 1.5 mph 4 mph 91% 0.00 in 12 W/m2
07:04 58.3 °F 55.6 °F 30.29 in WNW 0.3 mph 4 mph 91% 0.00 in 14 W/m2
07:09 58.3 °F 55.6 °F 30.29 in WNW 0.4 mph 2 mph 91% 0.00 in 12 W/m2
07:14 58.3 °F 55.6 °F 30.29 in WNW 0.7 mph 3 mph 91% 0.00 in 16 W/m2
07:19 58.5 °F 55.8 °F 30.29 in WNW 0.3 mph 2 mph 91% 0.00 in 19 W/m2
07:24 58.5 °F 55.8 °F 30.29 in WNW 0.2 mph 2 mph 91% 0.00 in 39 W/m2
07:29 58.6 °F 55.9 °F 30.29 in Calm     91.1% 0.00 in 33 W/m2
07:34 58.6 °F 56.3 °F 30.30 in NW 0.3 mph 1 mph 92% 0.00 in 44 W/m2
07:39 58.8 °F 56.5 °F 30.30 in North 0.1 mph 1 mph 92% 0.00 in 44 W/m2
07:44 58.9 °F 56.6 °F 30.30 in North 0.5 mph 2 mph 92% 0.00 in 35 W/m2
07:49 59.1 °F 56.7 °F 30.30 in North 0.1 mph 1 mph 92% 0.00 in 37 W/m2
07:54 59.4 °F 57 °F 30.30 in West 2.1 mph 6 mph 92% 0.00 in 46 W/m2
07:59 59.6 °F 57.3 °F 30.30 in WSW 3.1 mph 7 mph 92% 0.00 in 60 W/m2
08:04 59.8 °F 57.5 °F 30.30 in WSW 2.2 mph 7 mph 92% 0.00 in 74 W/m2
08:09 59.9 °F 57.6 °F 30.30 in SW 2.4 mph 7 mph 92% 0.00 in 111 W/m2
08:14 60.2 °F 58.1 °F 30.30 in SW 3.4 mph 6 mph 92.7% 0.00 in 95 W/m2
08:19 60.3 °F 58.3 °F 30.30 in WSW 3.6 mph 6 mph 93% 0.00 in 104 W/m2
08:24 60.4 °F 58.5 °F 30.30 in SW 3.7 mph 9 mph 93% 0.00 in 120 W/m2
08:29 60.6 °F 58.6 °F 30.30 in WSW 3.5 mph 10 mph 93% 0.00 in 149 W/m2
08:34 60.9 °F 58.9 °F 30.30 in SW 4.8 mph 9 mph 93% 0.00 in 127 W/m2
08:39 61.1 °F 59.1 °F 30.31 in SW 6 mph 12 mph 93% 0.00 in 114 W/m2
08:44 61.2 °F 59.3 °F 30.31 in WSW 5.1 mph 9 mph 93% 0.00 in 123 W/m2
08:49 61.3 °F 59.4 °F 30.31 in WSW 4.9 mph 12 mph 93% 0.00 in 127 W/m2
08:54 61.4 °F 59.5 °F 30.31 in SW 6.2 mph 12 mph 93% 0.00 in 132 W/m2
08:59 61.6 °F 59.6 °F 30.31 in SW 6.9 mph 12 mph 93% 0.00 in 153 W/m2
09:04 61.9 °F 59.8 °F 30.32 in SW 6.3 mph 12 mph 92.9% 0.00 in 213 W/m2
09:09 62.2 °F 59.9 °F 30.32 in SW 4.8 mph 11 mph 92% 0.00 in 301 W/m2
09:14 62.5 °F 60.2 °F 30.32 in WSW 5.4 mph 10 mph 92% 0.00 in 301 W/m2
09:19 62.8 °F 60.2 °F 30.32 in WSW 6.5 mph 12 mph 91.1% 0.00 in 227 W/m2
09:24 63 °F 60.3 °F 30.32 in WSW 5.8 mph 11 mph 91% 0.00 in 220 W/m2
09:29 63.1 °F 60.1 °F 30.32 in WSW 5 mph 9 mph 90% 0.00 in 200 W/m2
09:34 63.2 °F 60.2 °F 30.32 in SW 6.1 mph 11 mph 90% 0.00 in 264 W/m2
09:39 63.4 °F 60.3 °F 30.32 in SW 4.8 mph 10 mph 89.3% 0.00 in 258 W/m2
09:44 63.8 °F 60.5 °F 30.32 in SW 6 mph 10 mph 89% 0.00 in 415 W/m2
09:49 64.1 °F 60.5 °F 30.33 in WSW 10.3 mph 16 mph 88.1% 0.00 in 378 W/m2
09:54 64.1 °F 60.2 °F 30.33 in SW 9.3 mph 16 mph 87.1% 0.00 in 244 W/m2
09:59 64.2 °F 60.3 °F 30.33 in WSW 6 mph 12 mph 87% 0.00 in 239 W/m2
10:04 64.3 °F 60.3 °F 30.33 in WSW 9.2 mph 15 mph 86.8% 0.00 in 278 W/m2
10:09 64.3 °F 60 °F 30.33 in WSW 7.2 mph 15 mph 86% 0.00 in 332 W/m2
10:14 64.6 °F 60.3 °F 30.33 in SW 7.9 mph 13 mph 86% 0.00 in 279 W/m2
10:19 64.5 °F 60.2 °F 30.33 in SW 7.5 mph 12 mph 86% 0.00 in 353 W/m2
10:24 64.3 °F 60 °F 30.34 in WSW 9.2 mph 15 mph 86% 0.00 in 436 W/m2
10:29 64.2 °F 60 °F 30.34 in WSW 7.5 mph 13 mph 86.2% 0.00 in 547 W/m2
10:34 64.7 °F 60.5 °F 30.34 in WSW 5.9 mph 13 mph 86.3% 0.00 in 547 W/m2
10:39 64.8 °F 60.5 °F 30.34 in WSW 7.6 mph 15 mph 86% 0.00 in 306 W/m2
10:44 64.6 °F 60.3 °F 30.34 in WSW 7.6 mph 15 mph 86% 0.00 in 638 W/m2
10:49 64.9 °F 60.1 °F 30.34 in WSW 10.1 mph 15 mph 84.7% 0.00 in 638 W/m2
10:54 65.5 °F 60.3 °F 30.34 in WSW 7 mph 15 mph 83.2% 0.00 in 564 W/m2
10:59 65.8 °F 60.2 °F 30.34 in West 7.4 mph 15 mph 81.8% 0.00 in 429 W/m2
11:04 66.1 °F 60.3 °F 30.34 in West 6.6 mph 15 mph 81.2% 0.00 in 279 W/m2
11:09 66.1 °F 60 °F 30.34 in WSW 8.1 mph 15 mph 80.4% 0.00 in 299 W/m2
11:14 66.1 °F 59.8 °F 30.34 in WSW 7.5 mph 13 mph 80.2% 0.00 in 295 W/m2
11:19 66.3 °F 60 °F 30.34 in WSW 8.3 mph 14 mph 80% 0.00 in 499 W/m2
11:24 66.7 °F 60.1 °F 30.34 in WSW 9.3 mph 16 mph 79.1% 0.00 in 401 W/m2
11:29 66.7 °F 59.7 °F 30.34 in WSW 8.8 mph 16 mph 78.1% 0.00 in 327 W/m2
11:34 66.7 °F 59.7 °F 30.34 in West 8.2 mph 14 mph 78% 0.00 in 221 W/m2
11:39 66.7 °F 59.7 °F 30.34 in SW 6.5 mph 14 mph 78% 0.00 in 172 W/m2
11:44 66.7 °F 59.7 °F 30.34 in WSW 5.9 mph 13 mph 78% 0.00 in 207 W/m2
11:49 66.9 °F 59.9 °F 30.34 in West 6.5 mph 12 mph 78% 0.00 in 269 W/m2
11:54 67 °F 60 °F 30.34 in WSW 6.8 mph 15 mph 78% 0.00 in 244 W/m2
11:59 66.9 °F 59.9 °F 30.34 in West 7.1 mph 15 mph 78% 0.00 in 144 W/m2
12:04 66.9 °F 59.9 °F 30.34 in West 6.9 mph 14 mph 78% 0.00 in 207 W/m2
12:09 66.7 °F 59.7 °F 30.34 in West 7.3 mph 14 mph 78% 0.00 in 174 W/m2
12:14 66.7 °F 59.7 °F 30.34 in WSW 8 mph 14 mph 78% 0.00 in 209 W/m2
12:19 66.7 °F 59.7 °F 30.34 in West 7.1 mph 14 mph 78% 0.00 in 232 W/m2
12:24 66.8 °F 59.8 °F 30.34 in WNW 7.3 mph 13 mph 78% 0.00 in 496 W/m2
12:29 67.5 °F 60.2 °F 30.34 in West 5.6 mph 13 mph 77.4% 0.00 in 387 W/m2
12:34 68.1 °F 60.3 °F 30.34 in WSW 7.1 mph 13 mph 76.6% 0.00 in 591 W/m2
12:39 68.5 °F 60.5 °F 30.34 in WSW 6.6 mph 12 mph 75.8% 0.00 in 591 W/m2
12:44 68.9 °F 60.3 °F 30.33 in WSW 6.1 mph 12 mph 74% 0.00 in 362 W/m2
12:49 69.4 °F 60.4 °F 30.33 in West 7.1 mph 13 mph 72.8% 0.00 in 930 W/m2
12:54 69.6 °F 60.4 °F 30.33 in WSW 8.6 mph 15 mph 72.3% 0.00 in 863 W/m2
12:59 69.3 °F 59.5 °F 30.33 in WSW 9.7 mph 16 mph 71% 0.00 in 837 W/m2
13:04 69.4 °F 59.7 °F 30.33 in West 8.4 mph 15 mph 71.3% 0.00 in 837 W/m2
13:09 70.3 °F 60.5 °F 30.33 in West 5.3 mph 13 mph 71% 0.00 in 821 W/m2
13:14 70.7 °F 60.3 °F 30.33 in West 8.1 mph 15 mph 69.8% 0.00 in 810 W/m2
13:19 70.4 °F 59.7 °F 30.34 in WSW 9.4 mph 16 mph 68.9% 0.00 in 726 W/m2
13:24 69.9 °F 59.4 °F 30.34 in West 8.9 mph 14 mph 69.4% 0.00 in 649 W/m2
13:29 69.3 °F 59.4 °F 30.33 in West 8.2 mph 20 mph 70.7% 0.00 in 292 W/m2
13:34 69.4 °F 59.7 °F 30.33 in WSW 6.5 mph 20 mph 71.3% 0.00 in 243 W/m2
13:39 69.5 °F 59.6 °F 30.33 in West 8.9 mph 20 mph 71% 0.00 in 737 W/m2
13:44 69.6 °F 59.7 °F 30.33 in WSW 8.2 mph 20 mph 71% 0.00 in 313 W/m2
13:49 69.6 °F 60.1 °F 30.33 in SW 8.6 mph 16 mph 71.8% 0.00 in 362 W/m2
13:54 69.5 °F 60.2 °F 30.33 in WSW 8.6 mph 16 mph 72% 0.00 in 459 W/m2
13:59 70 °F 60.5 °F 30.33 in WSW 8.1 mph 15 mph 71.8% 0.00 in 721 W/m2
14:04 70.4 °F 60.4 °F 30.32 in West 12.4 mph 19 mph 70.6% 0.00 in 703 W/m2
14:09 70.6 °F 60.4 °F 30.32 in West 9.6 mph 18 mph 70.1% 0.00 in 703 W/m2
14:14 70.8 °F 60.3 °F 30.32 in West 9.9 mph 17 mph 69.4% 0.00 in 691 W/m2
14:19 70.4 °F 60.1 °F 30.32 in West 8.9 mph 15 mph 69.6% 0.00 in 779 W/m2
14:24 70.3 °F 60.3 °F 30.32 in West 9.5 mph 16 mph 70.6% 0.00 in 805 W/m2
14:29 71 °F 60.9 °F 30.32 in West 7.1 mph 16 mph 70.3% 0.00 in 805 W/m2
14:34 71.3 °F 60.8 °F 30.32 in WSW 9.7 mph 17 mph 69.1% 0.00 in 559 W/m2
14:39 71.2 °F 60.6 °F 30.32 in West 8.5 mph 17 mph 69.2% 0.00 in 701 W/m2
14:44 70.9 °F 60.5 °F 30.32 in WNW 10 mph 16 mph 69.6% 0.00 in 694 W/m2
14:49 70.7 °F 60.8 °F 30.32 in WNW 10.3 mph 15 mph 70.8% 0.00 in 647 W/m2
14:54 70.4 °F 60.6 °F 30.32 in WNW 10.3 mph 16 mph 71.1% 0.00 in 638 W/m2
14:59 71 °F 61.3 °F 30.32 in West 6 mph 14 mph 71.6% 0.00 in 619 W/m2
15:04 71 °F 61.1 °F 30.32 in WNW 9.2 mph 18 mph 71.1% 0.00 in 638 W/m2
15:09 70.2 °F 60.8 °F 30.32 in WNW 8.7 mph 18 mph 72.4% 0.00 in 606 W/m2
15:14 70.2 °F 60.6 °F 30.32 in WNW 7.6 mph 14 mph 72% 0.00 in 575 W/m2
15:19 70.4 °F 60.5 °F 30.32 in West 10.8 mph 16 mph 71% 0.00 in 575 W/m2
15:24 70.3 °F 60.2 °F 30.32 in West 7.7 mph 16 mph 70.3% 0.00 in 592 W/m2
15:29 70.7 °F 60.3 °F 30.32 in West 9.7 mph 15 mph 69.6% 0.00 in 605 W/m2
15:34 70.2 °F 59.7 °F 30.32 in West 9.7 mph 16 mph 69.5% 0.00 in 571 W/m2
15:39 70.1 °F 59.4 °F 30.32 in West 10.5 mph 17 mph 68.9% 0.00 in 587 W/m2
15:44 69.9 °F 59.2 °F 30.32 in WNW 8.6 mph 16 mph 68.6% 0.00 in 584 W/m2
15:49 70 °F 59.2 °F 30.32 in West 8 mph 17 mph 68.7% 0.00 in 577 W/m2
15:54 70.6 °F 59.8 °F 30.32 in WNW 4.3 mph 17 mph 68.7% 0.00 in 526 W/m2
15:59 70.3 °F 59.2 °F 30.32 in WNW 8.9 mph 17 mph 67.8% 0.00 in 566 W/m2
16:04 70.1 °F 59.4 °F 30.32 in WNW 8.2 mph 14 mph 68.9% 0.00 in 566 W/m2
16:09 69.7 °F 59 °F 30.32 in WNW 10.7 mph 20 mph 68.8% 0.00 in 476 W/m2
16:14 69.6 °F 58.9 °F 30.32 in West 7.8 mph 15 mph 68.8% 0.00 in 466 W/m2
16:19 69.6 °F 59 °F 30.33 in WNW 10.7 mph 19 mph 69% 0.00 in 450 W/m2
16:24 69.3 °F 58.7 °F 30.33 in WNW 7.6 mph 17 mph 69.2% 0.00 in 439 W/m2
16:29 69.2 °F 58.6 °F 30.33 in WNW 8.5 mph 15 mph 69% 0.00 in 425 W/m2
16:34 68.9 °F 58.4 °F 30.33 in West 9 mph 15 mph 69.1% 0.00 in 417 W/m2
16:39 68.9 °F 58.6 °F 30.33 in WNW 7.9 mph 15 mph 70% 0.00 in 410 W/m2
16:44 68.6 °F 58.6 °F 30.33 in WNW 9.5 mph 16 mph 70.4% 0.00 in 397 W/m2
16:49 68.5 °F 58.6 °F 30.32 in WNW 9.3 mph 18 mph 70.6% 0.00 in 383 W/m2
16:54 68.4 °F 58.4 °F 30.32 in WNW 6.9 mph 18 mph 70.3% 0.00 in 367 W/m2
16:59 68.6 °F 58.9 °F 30.32 in WNW 6.7 mph 15 mph 71% 0.00 in 359 W/m2
17:04 68.8 °F 58.7 °F 30.32 in West 9.1 mph 18 mph 70.2% 0.00 in 348 W/m2
17:09 68.6 °F 58.5 °F 30.32 in WNW 8.2 mph 14 mph 70.1% 0.00 in 336 W/m2
17:14 68.6 °F 58.9 °F 30.32 in West 8.2 mph 15 mph 71% 0.00 in 323 W/m2
17:19 68.6 °F 58.9 °F 30.32 in WNW 7.9 mph 15 mph 71% 0.00 in 313 W/m2
17:24 68.4 °F 58.8 °F 30.32 in WNW 5.9 mph 13 mph 71.5% 0.00 in 299 W/m2
17:29 68.5 °F 59.2 °F 30.32 in West 6.9 mph 15 mph 71.9% 0.00 in 285 W/m2
17:34 68 °F 58.7 °F 30.33 in West 9.5 mph 16 mph 72% 0.00 in 202 W/m2
17:39 67.5 °F 58.5 °F 30.33 in West 9.1 mph 16 mph 73% 0.00 in 274 W/m2
17:44 67.2 °F 58.3 °F 30.33 in West 8.9 mph 16 mph 73.1% 0.00 in 79 W/m2
17:49 66.9 °F 58.3 °F 30.33 in WNW 8.1 mph 15 mph 74% 0.00 in 53 W/m2
17:54 66.7 °F 58.1 °F 30.33 in WNW 10.3 mph 19 mph 74% 0.00 in 65 W/m2
17:59 66.6 °F 58.1 °F 30.33 in WNW 8.6 mph 19 mph 74% 0.00 in 63 W/m2
18:04 66.6 °F 58.1 °F 30.33 in West 7.8 mph 13 mph 74% 0.00 in 46 W/m2
18:09 66.6 °F 58.1 °F 30.33 in WNW 4.8 mph 12 mph 74% 0.00 in 46 W/m2
18:14 66.3 °F 58 °F 30.33 in WNW 6.2 mph 12 mph 74.5% 0.00 in 39 W/m2
18:19 66.1 °F 58 °F 30.34 in WNW 6.6 mph 11 mph 75% 0.00 in 42 W/m2
18:24 65.8 °F 57.7 °F 30.34 in WNW 9.2 mph 14 mph 75% 0.00 in 33 W/m2
18:29 65.7 °F 57.6 °F 30.34 in WNW 5.7 mph 14 mph 75% 0.00 in 33 W/m2
18:34 65.7 °F 57.5 °F 30.34 in WNW 4.8 mph 11 mph 74.7% 0.00 in 30 W/m2
18:39 65.7 °F 57.5 °F 30.34 in WNW 6.2 mph 11 mph 74.7% 0.00 in 21 W/m2
18:44 65.5 °F 57.1 °F 30.34 in WNW 6.8 mph 14 mph 74.3% 0.00 in 18 W/m2
18:49 65.3 °F 56.9 °F 30.34 in WNW 7.5 mph 13 mph 74.3% 0.00 in 16 W/m2
18:54 65.3 °F 57.2 °F 30.34 in WNW 4.8 mph 10 mph 75% 0.00 in 14 W/m2
18:59 65.1 °F 57 °F 30.34 in WNW 5.1 mph 9 mph 75% 0.00 in 14 W/m2
19:04 64.9 °F 56.9 °F 30.34 in WNW 5.8 mph 12 mph 75.2% 0.00 in 14 W/m2
19:09 64.8 °F 57 °F 30.34 in WNW 6 mph 11 mph 76% 0.00 in 12 W/m2
19:14 64.5 °F 56.8 °F 30.34 in WNW 4.7 mph 10 mph 76.2% 0.00 in 5 W/m2
19:19 64.3 °F 56.9 °F 30.34 in WNW 5.7 mph 10 mph 77% 0.00 in 0 W/m2
19:24 64.1 °F 57.1 °F 30.34 in WNW 4.4 mph 9 mph 78% 0.00 in 0 W/m2
19:29 64 °F 57.1 °F 30.34 in WNW 3.8 mph 11 mph 78.5% 0.00 in 0 W/m2
19:34 63.9 °F 57.2 °F 30.35 in NW 3.8 mph 8 mph 79.1% 0.00 in 0 W/m2
19:39 63.8 °F 57.5 °F 30.35 in WNW 4.7 mph 9 mph 80% 0.00 in 0 W/m2
19:44 63.7 °F 57.4 °F 30.35 in WNW 3.2 mph 7 mph 80% 0.00 in 0 W/m2
19:49 63.7 °F 57.7 °F 30.35 in WNW 3.8 mph 8 mph 80.8% 0.00 in 0 W/m2
19:54 63.7 °F 57.6 °F 30.35 in WNW 4.2 mph 8 mph 80.6% 0.00 in 0 W/m2
19:59 63.7 °F 57.7 °F 30.35 in WNW 3.9 mph 8 mph 81% 0.00 in 0 W/m2
20:04 63.7 °F 57.7 °F 30.35 in West 4.6 mph 8 mph 81% 0.00 in 0 W/m2
20:09 63.7 °F 57.7 °F 30.36 in West 5.1 mph 8 mph 81% 0.00 in 0 W/m2
20:14 63.5 °F 57.8 °F 30.36 in WNW 4.6 mph 8 mph 81.5% 0.00 in 0 W/m2
20:19 63.5 °F 57.9 °F 30.36 in WNW 2.9 mph 7 mph 82% 0.00 in 0 W/m2
20:24 63.4 °F 58.1 °F 30.36 in WNW 3.7 mph 8 mph 82.8% 0.00 in 0 W/m2
20:29 63.1 °F 58 °F 30.37 in WNW 4.7 mph 8 mph 83.5% 0.00 in 0 W/m2
20:34 62.9 °F 58.2 °F 30.37 in West 3.3 mph 8 mph 84.6% 0.00 in 0 W/m2
20:39 62.6 °F 58.1 °F 30.37 in WNW 2.6 mph 7 mph 85% 0.00 in 0 W/m2
20:44 62.6 °F 58.3 °F 30.37 in WNW 2 mph 4 mph 85.9% 0.00 in 0 W/m2
20:49 62.5 °F 58.2 °F 30.37 in WNW 1.3 mph 4 mph 86% 0.00 in 0 W/m2
20:54 62.4 °F 58.5 °F 30.37 in West 2 mph 6 mph 87% 0.00 in 0 W/m2
20:59 62.4 °F 58.5 °F 30.37 in West 3.1 mph 7 mph 87% 0.00 in 0 W/m2
21:04 62.3 °F 58.5 °F 30.37 in WSW 2.9 mph 7 mph 87.3% 0.00 in 0 W/m2
21:09 62.4 °F 58.8 °F 30.37 in WSW 1.8 mph 6 mph 88% 0.00 in 0 W/m2
21:14 62.4 °F 58.8 °F 30.37 in WSW 2.1 mph 6 mph 88% 0.00 in 0 W/m2
21:19 62.3 °F 58.7 °F 30.37 in West 3 mph 6 mph 88% 0.00 in 0 W/m2
21:24 62.2 °F 58.6 °F 30.37 in West 2.6 mph 7 mph 88% 0.00 in 0 W/m2
21:29 62.2 °F 58.6 °F 30.37 in West 3 mph 7 mph 88% 0.00 in 0 W/m2
21:34 62.2 °F 58.8 °F 30.37 in West 4 mph 9 mph 88.5% 0.00 in 0 W/m2
21:39 62.1 °F 58.9 °F 30.37 in West 2.7 mph 7 mph 89% 0.00 in 0 W/m2
21:44 62.1 °F 58.9 °F 30.37 in WSW 1.9 mph 5 mph 89% 0.00 in 0 W/m2
21:49 62.1 °F 58.9 °F 30.38 in WSW 2.6 mph 8 mph 89.3% 0.00 in 0 W/m2
21:54 62 °F 59.1 °F 30.38 in WSW 2.8 mph 5 mph 90% 0.00 in 0 W/m2
21:59 61.8 °F 58.9 °F 30.38 in WSW 2.5 mph 6 mph 90% 0.00 in 0 W/m2
22:04 61.7 °F 58.8 °F 30.38 in WSW 2.3 mph 5 mph 90% 0.00 in 0 W/m2
22:09 61.7 °F 58.9 °F 30.38 in WSW 1.8 mph 4 mph 90.8% 0.00 in 0 W/m2
22:14 61.5 °F 58.8 °F 30.38 in WSW 2.1 mph 5 mph 91% 0.00 in 0 W/m2
22:19 61.5 °F 58.8 °F 30.38 in WSW 3.4 mph 6 mph 91% 0.00 in 0 W/m2
22:24 61.5 °F 58.8 °F 30.38 in West 1.8 mph 6 mph 91% 0.00 in 0 W/m2
22:29 61.5 °F 59 °F 30.38 in West 1.2 mph 5 mph 91.6% 0.00 in 0 W/m2
22:34 61.4 °F 59.1 °F 30.38 in West 1.6 mph 5 mph 92% 0.00 in 0 W/m2
22:39 61.5 °F 59.2 °F 30.39 in West 0.8 mph 4 mph 92% 0.00 in 0 W/m2
22:44 61.3 °F 59 °F 30.39 in West 1.7 mph 5 mph 92% 0.00 in 0 W/m2
22:49 61.3 °F 59 °F 30.39 in West 2 mph 5 mph 92% 0.00 in 0 W/m2
22:54 61.3 °F 59 °F 30.39 in West 2 mph 6 mph 92% 0.00 in 0 W/m2
22:59 61.4 °F 59.1 °F 30.39 in West 2.9 mph 6 mph 92% 0.00 in 0 W/m2
23:04 61.4 °F 59.1 °F 30.39 in West 1.8 mph 5 mph 92% 0.00 in 0 W/m2
23:09 61.5 °F 59.4 °F 30.39 in West 2 mph 6 mph 92.7% 0.00 in 0 W/m2
23:14 61.5 °F 59.5 °F 30.39 in West 2.1 mph 6 mph 93% 0.00 in 0 W/m2
23:19 61.5 °F 59.5 °F 30.39 in West 1.6 mph 5 mph 93% 0.00 in 0 W/m2
23:24 61.5 °F 59.5 °F 30.39 in West 2.7 mph 6 mph 93% 0.00 in 0 W/m2
23:29 61.5 °F 59.5 °F 30.39 in West 3.1 mph 7 mph 93% 0.00 in 0 W/m2
23:34 61.5 °F 59.5 °F 30.39 in WNW 1.1 mph 7 mph 93% 0.01 in 0 W/m2
23:39 61.5 °F 59.5 °F 30.39 in WNW 2.6 mph 5 mph 93% 0.01 in 0 W/m2
23:44 61.5 °F 59.5 °F 30.39 in WNW 1.8 mph 4 mph 93% 0.01 in 0 W/m2
23:49 61.5 °F 59.5 °F 30.39 in WNW 0.8 mph 3 mph 93% 0.01 in 0 W/m2
23:54 61.5 °F 59.5 °F 30.39 in WNW 0.3 mph 2 mph 93.2% 0.01 in 0 W/m2
23:59 61.5 °F 59.7 °F 30.39 in WNW 0.6 mph 4 mph 94% 0.01 in 0 W/m2
Bath Spa Weather
Compliments of Weather Underground - 2 mb